createdAt,value
2018-06-15T00:02:12.926Z,3.40
2018-06-15T00:04:47.151Z,3.85
2018-06-15T00:07:21.550Z,3.80
2018-06-15T00:09:56.879Z,3.75
2018-06-15T00:12:31.213Z,4.00
2018-06-15T00:15:05.624Z,4.20
2018-06-15T00:17:40.468Z,4.15
2018-06-15T00:20:14.812Z,4.15
2018-06-15T00:22:49.156Z,4.30
2018-06-15T00:25:23.471Z,3.70
2018-06-15T00:27:57.891Z,6.25
2018-06-15T00:30:32.210Z,5.17
2018-06-15T00:33:06.632Z,4.50
2018-06-15T00:35:41.027Z,5.08
2018-06-15T00:38:15.295Z,4.30
2018-06-15T00:40:49.685Z,4.25
2018-06-15T00:43:23.870Z,4.50
2018-06-15T00:45:58.146Z,4.12
2018-06-15T00:48:32.611Z,4.53
2018-06-15T00:51:06.883Z,5.08
2018-06-15T00:53:41.155Z,4.10
2018-06-15T00:56:15.611Z,4.50
2018-06-15T00:58:49.659Z,4.05
2018-06-15T01:01:23.886Z,3.90
2018-06-15T01:03:58.263Z,3.50
2018-06-15T01:06:33.098Z,4.05
2018-06-15T01:09:08.075Z,4.05
2018-06-15T01:11:42.348Z,3.77
2018-06-15T01:14:16.718Z,4.03
2018-06-15T01:16:51.123Z,3.90
2018-06-15T01:19:25.362Z,3.83
2018-06-15T01:21:59.722Z,3.95
2018-06-15T01:24:34.099Z,3.62
2018-06-15T01:27:08.529Z,4.30
2018-06-15T01:29:42.910Z,4.05
2018-06-15T01:32:17.068Z,5.55
2018-06-15T01:34:51.420Z,4.05
2018-06-15T01:37:25.775Z,4.67
2018-06-15T01:40:00.145Z,4.17
2018-06-15T01:42:34.636Z,3.50
2018-06-15T01:45:08.919Z,3.45
2018-06-15T01:47:43.352Z,3.60
2018-06-15T01:50:17.715Z,3.35
2018-06-15T01:52:53.232Z,4.83
2018-06-15T01:55:27.522Z,4.00
2018-06-15T01:58:01.883Z,3.98
2018-06-15T02:00:36.270Z,4.47
2018-06-15T02:03:10.629Z,4.00
2018-06-15T02:05:45.154Z,4.97
2018-06-15T02:08:19.620Z,4.12
2018-06-15T02:10:54.150Z,3.90
2018-06-15T02:13:28.577Z,4.37
2018-06-15T02:16:03.005Z,4.08
2018-06-15T02:18:37.586Z,3.77
2018-06-15T02:21:12.004Z,4.87
2018-06-15T02:23:46.344Z,4.62
2018-06-15T02:26:20.795Z,4.12
2018-06-15T02:28:55.229Z,4.45
2018-06-15T02:31:29.554Z,5.37
2018-06-15T02:34:03.989Z,5.80
2018-06-15T02:36:39.046Z,5.47
2018-06-15T02:39:13.273Z,4.95
2018-06-15T02:41:47.369Z,4.67
2018-06-15T02:44:21.577Z,4.78
2018-06-15T02:46:55.912Z,4.22
2018-06-15T02:49:30.216Z,3.98
2018-06-15T02:52:04.601Z,3.85
2018-06-15T02:54:38.950Z,5.33
2018-06-15T02:57:12.990Z,3.90
2018-06-15T02:59:47.299Z,4.50
2018-06-15T03:02:21.603Z,5.55
2018-06-15T03:04:56.179Z,5.17
2018-06-15T03:07:30.626Z,4.83
2018-06-15T03:10:04.893Z,4.00
2018-06-15T03:12:39.517Z,5.15
2018-06-15T03:15:13.717Z,4.97
2018-06-15T03:17:48.021Z,4.10
2018-06-15T03:20:22.420Z,4.00
2018-06-15T03:22:56.760Z,3.60
2018-06-15T03:25:30.887Z,4.78
2018-06-15T03:28:05.292Z,4.35
2018-06-15T03:30:39.767Z,4.65
2018-06-15T03:33:14.067Z,4.60
2018-06-15T03:35:48.447Z,4.95
2018-06-15T03:38:22.496Z,5.42
2018-06-15T03:40:56.906Z,7.17
2018-06-15T03:43:31.193Z,5.53
2018-06-15T03:46:05.217Z,4.20
2018-06-15T03:48:39.506Z,4.62
2018-06-15T03:51:13.936Z,4.30
2018-06-15T03:53:48.305Z,4.70
2018-06-15T03:56:22.637Z,5.03
2018-06-15T03:58:57.060Z,5.47
2018-06-15T04:01:31.232Z,4.10
2018-06-15T04:04:05.645Z,4.97
2018-06-15T04:06:40.086Z,4.22
2018-06-15T04:09:14.558Z,4.17
2018-06-15T04:11:48.587Z,4.55
2018-06-15T04:14:22.717Z,4.55
2018-06-15T04:16:57.021Z,4.05
2018-06-15T04:19:31.467Z,3.42
2018-06-15T04:22:05.915Z,4.33
2018-06-15T04:24:40.079Z,4.78
2018-06-15T04:27:14.328Z,4.62
2018-06-15T04:29:48.732Z,5.17
2018-06-15T04:32:22.947Z,4.30
2018-06-15T04:34:57.360Z,5.30
2018-06-15T04:37:31.645Z,4.92
2018-06-15T04:40:05.968Z,4.58
2018-06-15T04:42:40.308Z,6.10
2018-06-15T04:45:14.683Z,6.20
2018-06-15T04:47:49.063Z,4.53
2018-06-15T04:50:23.394Z,4.60
2018-06-15T04:52:57.819Z,4.37
2018-06-15T04:55:32.199Z,4.00
2018-06-15T04:58:06.516Z,6.90
2018-06-15T05:00:40.817Z,6.05
2018-06-15T05:03:15.319Z,6.30
2018-06-15T05:05:49.719Z,6.55
2018-06-15T05:08:24.077Z,6.10
2018-06-15T05:10:58.512Z,6.65
2018-06-15T05:13:32.955Z,6.22
2018-06-15T05:16:07.156Z,5.80
2018-06-15T05:18:41.163Z,4.97
2018-06-15T05:21:15.674Z,5.83
2018-06-15T05:23:50.092Z,5.60
2018-06-15T05:26:24.433Z,5.70
2018-06-15T05:28:58.961Z,4.78
2018-06-15T05:31:33.442Z,4.87
2018-06-15T05:34:07.827Z,4.80
2018-06-15T05:36:42.129Z,4.30
2018-06-15T05:39:16.590Z,6.10
2018-06-15T05:41:51.247Z,12.05
2018-06-15T05:44:25.582Z,10.05
2018-06-15T05:47:00.374Z,9.48
2018-06-15T05:49:35.126Z,4.70
2018-06-15T05:52:09.935Z,4.35
2018-06-15T05:54:45.769Z,4.42
2018-06-15T05:57:20.760Z,4.22
2018-06-15T05:59:55.431Z,5.40
2018-06-15T06:02:29.931Z,4.50
2018-06-15T06:05:04.489Z,3.50
2018-06-15T06:07:38.899Z,4.15
2018-06-15T06:10:13.344Z,4.15
2018-06-15T06:12:47.678Z,5.03
2018-06-15T06:15:22.097Z,4.47
2018-06-15T06:17:56.109Z,4.22
2018-06-15T06:20:30.471Z,4.10
2018-06-15T06:23:04.812Z,5.05
2018-06-15T06:25:39.162Z,4.95
2018-06-15T06:28:13.627Z,4.37
2018-06-15T06:30:47.998Z,3.90
2018-06-15T06:33:22.545Z,4.22
2018-06-15T06:35:56.893Z,4.58
2018-06-15T06:38:31.389Z,3.70
2018-06-15T06:41:05.736Z,4.37
2018-06-15T06:43:40.340Z,10.70
2018-06-15T06:46:14.617Z,7.30
2018-06-15T06:48:49.065Z,5.28
2018-06-15T06:51:23.470Z,4.15
2018-06-15T06:53:57.973Z,3.85
2018-06-15T06:56:32.363Z,3.98
2018-06-15T06:59:06.506Z,3.33
2018-06-15T07:01:40.720Z,3.37
2018-06-15T07:04:15.027Z,3.30
2018-06-15T07:06:49.338Z,3.00
2018-06-15T07:09:23.681Z,4.12
2018-06-15T07:11:58.094Z,3.30
2018-06-15T07:14:32.209Z,3.22
2018-06-15T07:17:06.617Z,3.83
2018-06-15T07:19:40.649Z,2.75
2018-06-15T07:22:15.018Z,2.95
2018-06-15T07:24:49.446Z,2.55
2018-06-15T07:27:23.890Z,3.00
2018-06-15T07:29:58.406Z,3.72
2018-06-15T07:32:32.880Z,3.17
2018-06-15T07:35:07.343Z,3.72
2018-06-15T07:37:41.645Z,2.70
2018-06-15T07:40:15.999Z,2.98
2018-06-15T07:42:50.326Z,3.02
2018-06-15T07:45:24.695Z,10.78
2018-06-15T07:47:59.006Z,5.47
2018-06-15T07:50:33.350Z,8.10
2018-06-15T07:53:07.591Z,3.27
2018-06-15T07:55:41.974Z,2.40
2018-06-15T07:58:16.308Z,2.47
2018-06-15T08:00:50.610Z,3.52
2018-06-15T08:03:25.047Z,3.00
2018-06-15T08:05:59.353Z,2.72
2018-06-15T08:08:33.777Z,2.40
2018-06-15T08:11:08.230Z,2.67
2018-06-15T08:13:42.568Z,2.70
2018-06-15T08:16:17.053Z,2.62
2018-06-15T08:18:51.339Z,2.70
2018-06-15T08:21:25.724Z,3.20
2018-06-15T08:24:00.023Z,3.17
2018-06-15T08:26:34.329Z,3.02
2018-06-15T08:29:08.838Z,2.37
2018-06-15T08:31:43.126Z,3.62
2018-06-15T08:34:17.515Z,2.80
2018-06-15T08:36:51.781Z,3.30
2018-06-15T08:39:26.207Z,3.92
2018-06-15T08:42:00.532Z,3.02
2018-06-15T08:44:34.946Z,3.83
2018-06-15T08:47:09.200Z,6.67
2018-06-15T08:49:43.388Z,11.22
2018-06-15T08:52:17.685Z,4.85
2018-06-15T08:54:53.098Z,3.50
2018-06-15T08:57:27.526Z,3.45
2018-06-15T09:00:01.821Z,2.60
2018-06-15T09:02:36.126Z,3.00
2018-06-15T09:05:10.505Z,2.67
2018-06-15T09:07:44.833Z,2.45
2018-06-15T09:10:18.838Z,2.30
2018-06-15T09:12:53.436Z,2.42
2018-06-15T09:15:27.714Z,2.67
2018-06-15T09:18:01.885Z,2.35
2018-06-15T09:20:37.008Z,2.65
2018-06-15T09:23:11.345Z,2.65
2018-06-15T09:25:45.369Z,2.70
2018-06-15T09:28:19.806Z,2.33
2018-06-15T09:30:54.162Z,2.45
2018-06-15T09:33:28.440Z,1.90
2018-06-15T09:36:02.838Z,2.37
2018-06-15T09:38:36.849Z,2.45
2018-06-15T09:41:11.187Z,3.27
2018-06-15T09:43:45.604Z,2.55
2018-06-15T09:46:19.918Z,4.58
2018-06-15T09:48:54.283Z,12.55
2018-06-15T09:51:28.548Z,9.45
2018-06-15T09:54:02.781Z,6.85
2018-06-15T09:56:36.981Z,4.42
2018-06-15T09:59:11.285Z,2.37
2018-06-15T10:01:45.733Z,2.80
2018-06-15T10:04:20.031Z,2.10
2018-06-15T10:06:54.302Z,2.30
2018-06-15T10:09:28.573Z,2.72
2018-06-15T10:12:02.903Z,2.50
2018-06-15T10:14:37.158Z,2.40
2018-06-15T10:17:11.440Z,2.25
2018-06-15T10:19:45.827Z,2.62
2018-06-15T10:22:20.502Z,2.83
2018-06-15T10:24:54.649Z,2.20
2018-06-15T10:27:29.092Z,2.60
2018-06-15T10:30:03.305Z,2.47
2018-06-15T10:32:37.707Z,2.15
2018-06-15T10:35:12.126Z,2.10
2018-06-15T10:37:46.371Z,2.45
2018-06-15T10:40:20.671Z,2.72
2018-06-15T10:42:55.131Z,2.45
2018-06-15T10:45:29.552Z,2.95
2018-06-15T10:48:03.892Z,2.65
2018-06-15T10:50:38.272Z,3.12
2018-06-15T10:53:12.638Z,3.90
2018-06-15T10:55:47.115Z,3.35
2018-06-15T10:58:21.446Z,2.20
2018-06-15T11:00:55.860Z,2.05
2018-06-15T11:03:30.162Z,2.90
2018-06-15T11:06:04.534Z,2.50
2018-06-15T11:08:38.905Z,2.50
2018-06-15T11:11:13.274Z,2.75
2018-06-15T11:13:47.550Z,1.98
2018-06-15T11:16:21.802Z,2.35
2018-06-15T11:18:56.087Z,2.40
2018-06-15T11:21:30.305Z,2.30
2018-06-15T11:24:05.013Z,2.75
2018-06-15T11:26:39.098Z,2.50
2018-06-15T11:29:13.321Z,1.95
2018-06-15T11:31:47.772Z,2.40
2018-06-15T11:34:22.167Z,2.52
2018-06-15T11:36:56.580Z,2.95
2018-06-15T11:39:30.972Z,2.42
2018-06-15T11:42:05.361Z,2.45
2018-06-15T11:44:39.781Z,2.10
2018-06-15T11:47:14.141Z,2.58
2018-06-15T11:49:48.432Z,2.65
2018-06-15T11:52:22.791Z,3.75
2018-06-15T11:54:57.205Z,4.67
2018-06-15T11:57:31.622Z,4.17
2018-06-15T12:00:06.018Z,4.47
2018-06-15T12:02:40.357Z,2.20
2018-06-15T12:05:14.595Z,2.62
2018-06-15T12:07:49.050Z,2.75
2018-06-15T12:10:23.342Z,2.40
2018-06-15T12:12:57.903Z,2.30
2018-06-15T12:15:32.042Z,2.02
2018-06-15T12:18:06.380Z,2.30
2018-06-15T12:20:40.748Z,2.70
2018-06-15T12:23:14.915Z,2.40
2018-06-15T12:25:49.242Z,2.20
2018-06-15T12:28:23.762Z,2.80
2018-06-15T12:30:57.954Z,2.65
2018-06-15T12:33:32.383Z,2.10
2018-06-15T12:36:06.767Z,2.55
2018-06-15T12:38:41.079Z,2.25
2018-06-15T12:41:15.546Z,2.67
2018-06-15T12:43:49.860Z,2.05
2018-06-15T12:46:24.211Z,2.62
2018-06-15T12:48:58.695Z,2.60
2018-06-15T12:51:32.988Z,2.65
2018-06-15T12:54:07.247Z,2.60
2018-06-15T12:56:41.575Z,4.28
2018-06-15T12:59:16.006Z,2.98
2018-06-15T13:01:50.346Z,2.80
2018-06-15T13:04:24.772Z,2.15
2018-06-15T13:06:59.028Z,2.80
2018-06-15T13:09:33.382Z,3.10
2018-06-15T13:12:07.653Z,2.45
2018-06-15T13:14:41.980Z,2.90
2018-06-15T13:17:16.436Z,2.92
2018-06-15T13:19:50.643Z,2.62
2018-06-15T13:22:25.255Z,3.02
2018-06-15T13:24:59.894Z,2.50
2018-06-15T13:27:34.438Z,3.10
2018-06-15T13:30:08.919Z,2.15
2018-06-15T13:32:43.544Z,2.40
2018-06-15T13:35:18.181Z,2.45
2018-06-15T13:37:52.670Z,3.05
2018-06-15T13:40:26.912Z,2.55
2018-06-15T13:43:01.256Z,2.50
2018-06-15T13:45:35.742Z,2.35
2018-06-15T13:48:10.119Z,2.22
2018-06-15T13:50:44.732Z,2.10
2018-06-15T13:53:18.983Z,2.30
2018-06-15T13:55:53.105Z,2.52
2018-06-15T13:58:27.330Z,4.22
2018-06-15T14:01:01.657Z,4.65
2018-06-15T14:03:35.981Z,3.50
2018-06-15T14:06:10.602Z,3.17
2018-06-15T14:08:45.067Z,2.60
2018-06-15T14:11:19.578Z,2.67
2018-06-15T14:13:54.191Z,2.62
2018-06-15T14:16:29.182Z,2.75
2018-06-15T14:19:03.617Z,2.60
2018-06-15T14:21:38.233Z,2.45
2018-06-15T14:24:12.965Z,2.75
2018-06-15T14:26:47.149Z,2.70
2018-06-15T14:29:21.387Z,3.05
2018-06-15T14:31:55.766Z,2.40
2018-06-15T14:34:30.082Z,2.20
2018-06-15T14:37:04.548Z,2.80
2018-06-15T14:39:39.011Z,2.17
2018-06-15T14:42:13.254Z,2.35
2018-06-15T14:44:47.625Z,2.35
2018-06-15T14:47:21.919Z,2.77
2018-06-15T14:49:56.364Z,2.52
2018-06-15T14:52:30.896Z,2.55
2018-06-15T14:55:05.483Z,2.22
2018-06-15T14:57:39.863Z,2.80
2018-06-15T15:00:14.289Z,4.08
2018-06-15T15:02:48.699Z,7.78
2018-06-15T15:05:23.567Z,3.37
2018-06-15T15:07:57.606Z,3.02
2018-06-15T15:10:31.952Z,2.50
2018-06-15T15:13:06.196Z,2.65
2018-06-15T15:15:40.501Z,2.83
2018-06-15T15:18:14.814Z,2.40
2018-06-15T15:20:49.066Z,2.80
2018-06-15T15:23:23.619Z,2.60
2018-06-15T15:25:57.937Z,3.12
2018-06-15T15:28:32.202Z,2.47
2018-06-15T15:31:06.610Z,3.05
2018-06-15T15:33:40.759Z,3.10
2018-06-15T15:36:15.174Z,3.00
2018-06-15T15:38:49.991Z,2.83
2018-06-15T15:41:24.531Z,3.58
2018-06-15T15:43:59.069Z,2.95
2018-06-15T15:46:33.448Z,2.75
2018-06-15T15:49:07.973Z,2.70
2018-06-15T15:51:42.287Z,2.60
2018-06-15T15:54:16.702Z,3.02
2018-06-15T15:56:51.087Z,2.87
2018-06-15T15:59:25.689Z,5.30
2018-06-15T16:02:00.150Z,6.40
2018-06-15T16:04:34.637Z,5.30
2018-06-15T16:07:09.175Z,3.87
2018-06-15T16:09:43.755Z,3.60
2018-06-15T16:12:17.931Z,3.35
2018-06-15T16:14:52.495Z,3.10
2018-06-15T16:17:26.727Z,3.37
2018-06-15T16:20:00.829Z,3.00
2018-06-15T16:22:35.175Z,3.08
2018-06-15T16:25:09.473Z,3.60
2018-06-15T16:27:43.870Z,3.00
2018-06-15T16:30:18.470Z,3.40
2018-06-15T16:32:53.081Z,3.40
2018-06-15T16:35:27.672Z,3.47
2018-06-15T16:38:02.477Z,3.33
2018-06-15T16:40:37.154Z,3.30
2018-06-15T16:43:11.483Z,3.40
2018-06-15T16:45:45.864Z,3.80
2018-06-15T16:48:19.959Z,3.67
2018-06-15T16:50:54.220Z,3.17
2018-06-15T16:53:28.514Z,3.40
2018-06-15T16:56:02.779Z,3.50
2018-06-15T16:58:37.025Z,2.93
2018-06-15T17:01:11.433Z,4.37
2018-06-15T17:03:45.852Z,4.03
2018-06-15T17:06:19.998Z,5.80
2018-06-15T17:08:54.359Z,7.73
2018-06-15T17:11:29.014Z,4.00
2018-06-15T17:14:03.449Z,3.10
2018-06-15T17:16:37.929Z,3.13
2018-06-15T17:19:12.358Z,2.90
2018-06-15T17:21:47.260Z,3.20
2018-06-15T17:24:21.634Z,3.47
2018-06-15T17:26:55.975Z,3.50
2018-06-15T17:29:30.994Z,3.13
2018-06-15T17:32:06.274Z,3.33
2018-06-15T17:34:40.607Z,3.20
2018-06-15T17:37:14.891Z,3.53
2018-06-15T17:39:49.288Z,3.60
2018-06-15T17:42:23.610Z,3.23
2018-06-15T17:44:58.210Z,3.20
2018-06-15T17:47:32.656Z,3.00
2018-06-15T17:50:07.167Z,3.00
2018-06-15T17:52:41.455Z,3.10
2018-06-15T17:55:15.871Z,4.00
2018-06-15T17:57:49.912Z,4.47
2018-06-15T18:00:24.212Z,3.50
2018-06-15T18:02:58.531Z,3.10
2018-06-15T18:05:32.550Z,5.90
2018-06-15T18:08:06.992Z,5.62
2018-06-15T18:10:41.335Z,7.03
2018-06-15T18:13:15.825Z,4.97
2018-06-15T18:15:50.288Z,4.80
2018-06-15T18:18:24.334Z,4.62
2018-06-15T18:20:58.791Z,4.45
2018-06-15T18:23:33.970Z,4.20
2018-06-15T18:26:08.234Z,4.20
2018-06-15T18:28:42.626Z,4.35
2018-06-15T18:31:16.986Z,3.83
2018-06-15T18:33:51.067Z,4.30
2018-06-15T18:36:25.464Z,4.20
2018-06-15T18:38:59.888Z,4.30
2018-06-15T18:41:34.395Z,3.80
2018-06-15T18:44:09.287Z,4.15
2018-06-15T18:46:43.745Z,4.17
2018-06-15T18:49:18.202Z,3.95
2018-06-15T18:51:52.725Z,5.03
2018-06-15T18:54:27.172Z,4.53
2018-06-15T18:57:01.479Z,4.15
2018-06-15T18:59:36.222Z,4.10
2018-06-15T19:02:10.620Z,3.98
2018-06-15T19:04:44.987Z,4.15
2018-06-15T19:07:19.229Z,5.05
2018-06-15T19:09:53.488Z,7.33
2018-06-15T19:12:27.837Z,9.13
2018-06-15T19:15:02.742Z,4.53
2018-06-15T19:17:37.197Z,4.65
2018-06-15T19:20:11.472Z,4.60
2018-06-15T19:22:45.815Z,5.20
2018-06-15T19:25:20.026Z,4.70
2018-06-15T19:27:54.293Z,4.65
2018-06-15T19:30:28.583Z,4.72
2018-06-15T19:33:02.863Z,4.47
2018-06-15T19:35:37.305Z,4.67
2018-06-15T19:38:11.591Z,4.70
2018-06-15T19:40:45.863Z,4.75
2018-06-15T19:43:20.110Z,4.65
2018-06-15T19:45:54.520Z,5.20
2018-06-15T19:48:28.864Z,4.70
2018-06-15T19:51:03.345Z,5.70
2018-06-15T19:53:38.775Z,5.28
2018-06-15T19:56:13.369Z,4.92
2018-06-15T19:58:48.005Z,5.45
2018-06-15T20:01:22.267Z,5.60
2018-06-15T20:03:56.561Z,5.78
2018-06-15T20:06:31.030Z,6.40
2018-06-15T20:09:07.175Z,7.95
2018-06-15T20:11:41.454Z,8.68
2018-06-15T20:14:15.825Z,7.42
2018-06-15T20:16:50.069Z,7.35
2018-06-15T20:19:24.520Z,7.25
2018-06-15T20:21:58.873Z,6.78
2018-06-15T20:24:33.626Z,7.10
2018-06-15T20:27:07.786Z,7.85
2018-06-15T20:29:42.107Z,11.38
2018-06-15T20:32:16.756Z,12.25
2018-06-15T20:34:51.084Z,11.70
2018-06-15T20:37:25.524Z,9.68
2018-06-15T20:39:59.995Z,8.45
2018-06-15T20:42:34.383Z,8.20
2018-06-15T20:45:08.669Z,7.50
2018-06-15T20:47:43.108Z,7.90
2018-06-15T20:50:17.411Z,8.60
2018-06-15T20:52:52.012Z,8.00
2018-06-15T20:55:26.645Z,7.60
2018-06-15T20:58:01.155Z,6.83
2018-06-15T21:00:36.011Z,7.60
2018-06-15T21:03:10.835Z,7.95
2018-06-15T21:05:45.585Z,8.00
2018-06-15T21:08:20.288Z,8.28
2018-06-15T21:10:54.889Z,9.35
2018-06-15T21:13:29.360Z,8.75
2018-06-15T21:16:03.691Z,7.70
2018-06-15T21:18:37.958Z,8.23
2018-06-15T21:21:12.223Z,7.45
2018-06-15T21:23:46.371Z,7.55
2018-06-15T21:26:20.687Z,7.53
2018-06-15T21:28:55.106Z,7.50
2018-06-15T21:31:29.507Z,7.05
2018-06-15T21:34:03.914Z,8.03
2018-06-15T21:36:38.361Z,7.55
2018-06-15T21:39:12.863Z,8.50
2018-06-15T21:41:47.235Z,7.80
2018-06-15T21:44:21.594Z,7.72
2018-06-15T21:46:56.023Z,7.65
2018-06-15T21:49:30.285Z,8.33
2018-06-15T21:52:05.006Z,8.05
2018-06-15T21:54:39.516Z,8.15
2018-06-15T21:57:14.755Z,7.45
2018-06-15T21:59:49.259Z,7.25
2018-06-15T22:02:23.676Z,7.80
2018-06-15T22:04:58.236Z,7.17
2018-06-15T22:07:32.962Z,7.12
2018-06-15T22:10:07.659Z,8.15
2018-06-15T22:15:39.590Z,9.48
2018-06-15T22:18:21.942Z,14.20
2018-06-15T22:21:01.698Z,20.60
2018-06-15T22:23:44.655Z,9.65
2018-06-15T22:26:27.956Z,7.97
2018-06-15T22:29:16.213Z,8.93
2018-06-15T22:31:54.062Z,9.40
2018-06-15T22:34:33.327Z,10.85
2018-06-15T22:37:13.001Z,8.15
2018-06-15T22:39:57.524Z,8.23
2018-06-15T22:42:37.425Z,8.78
2018-06-15T22:45:15.872Z,8.70
2018-06-15T22:47:56.044Z,9.10
2018-06-15T22:50:35.637Z,8.00
2018-06-15T22:53:16.512Z,9.35
2018-06-15T22:56:11.641Z,8.65
2018-06-15T22:58:46.396Z,7.33
2018-06-15T23:01:21.023Z,7.95
2018-06-15T23:04:01.030Z,8.30
2018-06-15T23:06:39.753Z,7.72
2018-06-15T23:09:25.759Z,7.78
2018-06-15T23:12:06.299Z,7.65
2018-06-15T23:14:43.721Z,6.95
2018-06-15T23:17:22.692Z,8.20
2018-06-15T23:19:58.537Z,7.92
2018-06-15T23:22:39.206Z,8.00
2018-06-15T23:25:13.577Z,8.15
2018-06-15T23:27:47.880Z,8.03
2018-06-15T23:30:22.316Z,8.40
2018-06-15T23:32:56.777Z,8.13
2018-06-15T23:35:31.235Z,9.95
2018-06-15T23:38:05.654Z,9.48
2018-06-15T23:40:40.028Z,11.15
2018-06-15T23:43:14.383Z,8.68
2018-06-15T23:45:48.771Z,8.38
2018-06-15T23:48:23.077Z,8.83
2018-06-15T23:50:57.499Z,8.73
2018-06-15T23:53:31.963Z,8.28
2018-06-15T23:56:06.651Z,8.38
2018-06-15T23:58:41.124Z,8.10
